createdAt,value
2023-02-14T00:03:29.562Z,19.8
2023-02-14T00:09:26.621Z,42.1
2023-02-14T00:15:15.888Z,32.3
2023-02-14T00:21:12.725Z,31.4
2023-02-14T00:27:28.403Z,22.7
2023-02-14T00:33:25.470Z,21.8
2023-02-14T00:39:54.826Z,23.1
2023-02-14T00:45:58.895Z,24.8
2023-02-14T00:52:07.053Z,22.5
2023-02-14T00:58:13.981Z,19.9
2023-02-14T01:10:44.238Z,21
2023-02-14T01:17:08.737Z,21.6
2023-02-14T01:23:21.146Z,22.5
2023-02-14T01:29:25.656Z,22.5
2023-02-14T01:35:24.036Z,22.2
2023-02-14T01:41:28.352Z,23.6
2023-02-14T01:47:50.738Z,23.9
2023-02-14T01:53:56.774Z,25
2023-02-14T01:59:54.331Z,26.3
2023-02-14T02:05:53.637Z,24.7
2023-02-14T02:12:12.740Z,28.1
2023-02-14T02:18:09.815Z,26.4
2023-02-14T02:24:06.570Z,24.7
2023-02-14T02:30:02.977Z,26.4
2023-02-14T02:36:13.514Z,29.4
2023-02-14T02:42:07.250Z,26.7
2023-02-14T02:48:08.984Z,25.6
2023-02-14T02:54:06.370Z,29.7
2023-02-14T03:06:33.790Z,30.4
2023-02-14T03:12:25.172Z,30.4
2023-02-14T03:38:17.922Z,34.1
2023-02-14T03:44:29.210Z,36.2
2023-02-14T03:50:41.797Z,36.4
2023-02-14T04:02:40.852Z,37
2023-02-14T04:08:45.976Z,39.9
2023-02-14T04:15:01.851Z,39
2023-02-14T04:26:50.655Z,43.3
2023-02-14T04:32:43.834Z,42.5
2023-02-14T04:45:04.483Z,48.5
2023-02-14T04:51:05.334Z,44
2023-02-14T04:57:09.725Z,42.4
2023-02-14T05:03:01.514Z,43.4
2023-02-14T05:09:04.379Z,42.9
2023-02-14T05:14:55.381Z,45.1
2023-02-14T05:20:58.709Z,45
2023-02-14T05:27:07.132Z,46.1
2023-02-14T05:33:11.184Z,44.4
2023-02-14T05:39:08.800Z,45.8
2023-02-14T05:45:03.688Z,45.2
2023-02-14T05:50:56.152Z,46.3
2023-02-14T05:56:52.932Z,46.5
2023-02-14T06:02:44.177Z,47.4
2023-02-14T06:08:39.261Z,49
2023-02-14T06:14:31.995Z,50.4
2023-02-14T06:20:32.068Z,50.2
2023-02-14T06:26:52.878Z,51.4
2023-02-14T06:33:10.671Z,53.7
2023-02-14T06:39:02.642Z,55.4
2023-02-14T06:45:01.545Z,51.9
2023-02-14T06:50:55.173Z,52.9
2023-02-14T06:57:08.648Z,54.3
2023-02-14T07:03:14.629Z,52.5
2023-02-14T07:09:08.160Z,56.4
2023-02-14T07:15:03.715Z,56.4
2023-02-14T07:21:06.630Z,58.1
2023-02-14T07:27:00.059Z,59.6
2023-02-14T07:32:48.865Z,57.7
2023-02-14T07:38:43.204Z,62.6
2023-02-14T07:44:37.999Z,59.4
2023-02-14T07:50:29.549Z,60.5
2023-02-14T07:56:25.918Z,62.6
2023-02-14T08:02:21.921Z,62.4
2023-02-14T08:08:15.816Z,61.7
2023-02-14T08:14:06.897Z,59.9
2023-02-14T08:19:59.012Z,59.4
2023-02-14T08:26:03.746Z,59.5
2023-02-14T08:31:59.194Z,59.4
2023-02-14T08:37:59.231Z,56.6
2023-02-14T08:43:59.340Z,56.1
2023-02-14T08:49:50.036Z,56.1
2023-02-14T08:55:42.047Z,57.6
2023-02-14T09:01:37.235Z,54.3
2023-02-14T09:07:29.008Z,53.6
2023-02-14T09:13:20.573Z,55.7
2023-02-14T09:19:17.095Z,53
2023-02-14T09:25:08.604Z,51.9
2023-02-14T09:31:02.710Z,53.4
2023-02-14T09:36:54.520Z,54.4
2023-02-14T09:42:46.784Z,53.4
2023-02-14T09:48:40.686Z,54.8
2023-02-14T09:54:32.732Z,53.8
2023-02-14T10:00:25.666Z,53.4
2023-02-14T10:06:31.838Z,48
2023-02-14T10:12:43.916Z,49.7
2023-02-14T10:18:44.857Z,49.3
2023-02-14T10:24:42.277Z,48.2
2023-02-14T10:30:46.250Z,49.2
2023-02-14T10:36:42.482Z,47.1
2023-02-14T10:42:37.159Z,45.7
2023-02-14T10:48:29.312Z,46
2023-02-14T10:54:32.205Z,45.2
2023-02-14T11:00:22.032Z,43.5
2023-02-14T11:06:12.805Z,43.9
2023-02-14T11:12:03.770Z,43.8
2023-02-14T11:17:53.568Z,45.6
2023-02-14T11:23:44.667Z,42.9
2023-02-14T11:29:35.163Z,41.5
2023-02-14T11:35:25.077Z,45.1
2023-02-14T11:41:15.676Z,43.5
2023-02-14T11:47:10.371Z,42.4
2023-02-14T11:53:01.823Z,42.2
2023-02-14T11:58:51.903Z,42.4
2023-02-14T12:04:52.059Z,40.1
2023-02-14T12:10:43.950Z,44.4
2023-02-14T12:16:38.682Z,41
2023-02-14T12:22:32.068Z,39.8
2023-02-14T12:28:21.466Z,40.7
2023-02-14T12:34:13.912Z,37.6
2023-02-14T12:40:05.374Z,39.2
2023-02-14T12:45:58.467Z,39.4
2023-02-14T12:51:49.957Z,37.3
2023-02-14T12:57:42.871Z,35.6
2023-02-14T13:03:35.860Z,36.2
2023-02-14T13:09:26.200Z,38.1
2023-02-14T13:15:18.321Z,40
2023-02-14T13:21:11.257Z,36.1
2023-02-14T13:27:03.358Z,35.2
2023-02-14T13:32:55.587Z,38.1
2023-02-14T13:38:46.683Z,36.4
2023-02-14T13:44:39.248Z,33.4
2023-02-14T13:50:31.244Z,34.3
2023-02-14T13:56:23.833Z,34.8
2023-02-14T14:02:17.135Z,32.5
2023-02-14T14:08:09.974Z,33.5
2023-02-14T14:14:00.711Z,32.7
2023-02-14T14:19:53.628Z,35.8
2023-02-14T14:25:46.010Z,31.1
2023-02-14T14:31:38.374Z,30.9
2023-02-14T14:37:30.286Z,28.6
2023-02-14T14:43:26.453Z,31
2023-02-14T14:49:17.615Z,30.1
2023-02-14T14:55:08.683Z,30.9
2023-02-14T15:01:07.665Z,29.9
2023-02-14T15:07:01.776Z,29
2023-02-14T15:12:54.849Z,30.2
2023-02-14T15:18:49.112Z,29.7
2023-02-14T15:24:44.497Z,30.8
2023-02-14T15:30:37.673Z,29.9
2023-02-14T15:36:30.302Z,29.2
2023-02-14T15:42:23.637Z,29.6
2023-02-14T15:48:14.033Z,29.3
2023-02-14T15:54:05.136Z,34.4
2023-02-14T15:59:57.514Z,32.7
2023-02-14T16:05:48.844Z,34.2
2023-02-14T16:11:40.030Z,35.1
2023-02-14T16:17:32.756Z,32.6
2023-02-14T16:23:23.396Z,35.4
2023-02-14T16:29:15.010Z,33.7
2023-02-14T16:35:05.599Z,39
2023-02-14T16:40:56.236Z,38.6
2023-02-14T16:46:48.022Z,34.1
2023-02-14T16:52:38.393Z,37.9
2023-02-14T16:58:28.759Z,37.6
2023-02-14T17:04:18.574Z,40.8
2023-02-14T17:10:08.568Z,37.5
2023-02-14T17:15:59.101Z,41.8
2023-02-14T17:21:50.841Z,42.1
2023-02-14T17:27:40.853Z,42.2
2023-02-14T17:33:31.875Z,41.1
2023-02-14T17:39:22.729Z,45.5
2023-02-14T17:45:12.784Z,43.8
2023-02-14T17:51:04.290Z,43.2
2023-02-14T17:56:55.454Z,44.6
2023-02-14T18:02:48.089Z,41
2023-02-14T18:08:38.465Z,44.6
2023-02-14T18:14:28.961Z,45.1
2023-02-14T18:20:19.056Z,46.1
2023-02-14T18:26:08.742Z,48.7
2023-02-14T18:31:59.893Z,46.6
2023-02-14T18:37:49.832Z,48.3
2023-02-14T18:43:41.249Z,47.7
2023-02-14T18:49:30.196Z,49.6
2023-02-14T18:55:29.487Z,48.1
2023-02-14T19:01:21.410Z,47.1
2023-02-14T19:07:11.712Z,49.6
2023-02-14T19:13:01.576Z,51.1
2023-02-14T19:18:52.321Z,50.7
2023-02-14T19:24:43.697Z,53.7
2023-02-14T19:30:33.259Z,53.9
2023-02-14T19:36:23.225Z,54.3
2023-02-14T19:42:15.526Z,55.6
2023-02-14T19:48:06.588Z,55.6
2023-02-14T19:53:58.302Z,56.1
2023-02-14T19:59:47.077Z,60.6
2023-02-14T20:05:36.872Z,62.6
2023-02-14T20:11:27.580Z,57.6
2023-02-14T20:17:19.045Z,59.6
2023-02-14T20:23:09.735Z,60.3
2023-02-14T20:29:00.248Z,61.2
2023-02-14T20:34:53.161Z,60.7
2023-02-14T20:40:44.627Z,71.2
2023-02-14T20:46:34.376Z,66.4
2023-02-14T20:52:26.765Z,67.8
2023-02-14T20:58:16.531Z,67.3
2023-02-14T21:04:06.999Z,66.3
2023-02-14T21:09:57.383Z,64.5
2023-02-14T21:15:47.503Z,68.1
2023-02-14T21:21:38.164Z,69.3
2023-02-14T21:27:27.910Z,72.1
2023-02-14T21:33:17.900Z,74.2
2023-02-14T21:39:08.060Z,74.1
2023-02-14T21:44:57.431Z,71.6
2023-02-14T21:50:49.766Z,73.4
2023-02-14T21:56:41.868Z,70.2
2023-02-14T22:02:32.557Z,73.1
2023-02-14T22:08:23.351Z,70.8
2023-02-14T22:14:16.273Z,71.5
2023-02-14T22:20:07.836Z,72.9
2023-02-14T22:25:55.849Z,71.7
2023-02-14T22:31:47.884Z,70.9
2023-02-14T22:37:38.241Z,70.7
2023-02-14T22:43:29.147Z,68.4
2023-02-14T22:49:20.857Z,67.6
2023-02-14T22:55:11.759Z,66.1
2023-02-14T23:01:01.004Z,66.8
2023-02-14T23:06:51.449Z,68.5
2023-02-14T23:12:41.920Z,71.6
2023-02-14T23:18:33.165Z,69.9
2023-02-14T23:24:27.101Z,67.4
2023-02-14T23:30:18.985Z,71
2023-02-14T23:36:09.984Z,68.5
2023-02-14T23:42:03.553Z,71.4
2023-02-14T23:48:01.789Z,71.3
2023-02-14T23:53:55.213Z,68.2
2023-02-14T23:59:54.070Z,70.3
